CEV3 weather

Vegreville Airport
Vegreville, Alberta, Canada

Public forecast

Using degrees Celsius for public forecast. Weather courtesy of forecast.io.

Closest aviation weather report (METAR) to Vegreville Airport

Closest report is Edmonton (CFB Namao) Heliport, 52.3 nm (96.9 km) W. Retrieved 2019/11/13 22:37 UTC (0 seconds ago):

CYED 132237Z 24005KT 15SM FEW250 06/02 A2991 RMK CI1 DA1788FT LAST STFD OBS/NEXT 141700 UTC SLP157

Closest aviation forecast (TAF) to Vegreville Airport

Closest forecast is Edmonton (CFB Namao) Heliport, 52.3 nm (96.9 km) W. Retrieved 2019/11/13 18:33 UTC (4 hours ago):

TAF CYED 131730Z 1318/1406 25008KT P6SM BKN050 BECMG 1320/1322 SCT050 RMK NXT FCST BY 140000Z